LECX weather

CLOSED Campolara Airport
Segovia, Castilla y León, Spain

Public forecast

Using degrees Celsius for public forecast. Weather courtesy of forecast.io.

Closest aviation weather report (METAR) to Campolara Airport

Closest report is Salamanca Airport, 44.6 nm (82.7 km) W. Retrieved 2019/10/13 21:30 UTC (19 minutes ago):

LESA 132130Z AUTO VRB01KT 9999 NCD 11/07 Q1013

Closest aviation forecast (TAF) to Campolara Airport

Closest forecast is Salamanca Airport, 44.6 nm (82.7 km) W. Retrieved 2019/10/13 18:27 UTC (3 hours ago):

TAF LESA 131700Z 1318/1418 24010KT CAVOK TX19/1318Z TN04/1406Z PROB40 TEMPO 1406/1418 4000 RA SHRA SCT020TCU PROB30 TEMPO 1406/1410 TS SCT020CB BECMG 1407/1409 24015G25KT PROB40 TEMPO 1408/1418 24015G40KT